createdAt,value
2023-05-13T00:00:35.205Z,6.73
2023-05-13T00:03:03.588Z,7.10
2023-05-13T00:05:32.136Z,7.43
2023-05-13T00:08:02.254Z,6.80
2023-05-13T00:10:30.563Z,8.50
2023-05-13T00:13:00.257Z,7.70
2023-05-13T00:15:28.928Z,6.97
2023-05-13T00:17:57.802Z,8.07
2023-05-13T00:20:26.632Z,7.93
2023-05-13T00:22:54.678Z,7.23
2023-05-13T00:25:22.803Z,9.70
2023-05-13T00:27:51.534Z,8.13
2023-05-13T00:30:21.494Z,9.00
2023-05-13T00:32:49.981Z,9.37
2023-05-13T00:35:19.086Z,9.03
2023-05-13T00:37:47.861Z,6.90
2023-05-13T00:40:21.022Z,9.53
2023-05-13T00:42:49.752Z,7.80
2023-05-13T00:45:17.954Z,10.60
2023-05-13T00:47:47.743Z,7.90
2023-05-13T00:50:16.259Z,7.03
2023-05-13T00:52:44.677Z,7.60
2023-05-13T00:55:12.958Z,7.67
2023-05-13T00:57:41.385Z,8.00
2023-05-13T01:00:11.007Z,8.33
2023-05-13T01:02:46.950Z,7.33
2023-05-13T01:05:23.661Z,8.40
2023-05-13T01:08:00.594Z,10.03
2023-05-13T01:10:47.764Z,9.87
2023-05-13T01:13:21.770Z,10.23
2023-05-13T01:15:53.208Z,9.50
2023-05-13T01:18:26.340Z,7.87
2023-05-13T01:20:57.466Z,9.13
2023-05-13T01:23:26.866Z,7.73
2023-05-13T01:25:54.881Z,8.00
2023-05-13T01:28:23.322Z,10.20
2023-05-13T01:30:51.784Z,9.03
2023-05-13T01:33:21.055Z,8.77
2023-05-13T01:35:49.262Z,8.53
2023-05-13T01:38:19.877Z,8.90
2023-05-13T01:40:49.692Z,8.80
2023-05-13T01:43:18.479Z,8.30
2023-05-13T01:45:46.450Z,8.50
2023-05-13T01:48:14.510Z,8.53
2023-05-13T01:50:42.560Z,8.30
2023-05-13T01:53:10.602Z,8.70
2023-05-13T01:55:38.639Z,9.13
2023-05-13T01:58:08.024Z,8.37
2023-05-13T02:00:36.018Z,9.23
2023-05-13T02:03:04.400Z,7.50
2023-05-13T02:05:33.356Z,9.50
2023-05-13T02:08:01.525Z,10.53
2023-05-13T02:10:29.494Z,8.40
2023-05-13T02:12:58.145Z,9.47
2023-05-13T02:15:27.698Z,9.00
2023-05-13T02:17:55.821Z,9.90
2023-05-13T02:20:24.151Z,10.67
2023-05-13T02:22:52.235Z,8.80
2023-05-13T02:25:20.570Z,7.77
2023-05-13T02:27:48.756Z,9.87
2023-05-13T02:30:17.930Z,8.40
2023-05-13T02:32:47.572Z,7.80
2023-05-13T02:35:16.091Z,9.63
2023-05-13T02:37:44.256Z,9.47
2023-05-13T02:40:13.674Z,11.17
2023-05-13T02:42:43.402Z,9.87
2023-05-13T02:45:12.565Z,10.13
2023-05-13T02:47:41.306Z,9.70
2023-05-13T02:50:12.669Z,10.03
2023-05-13T02:52:41.007Z,8.77
2023-05-13T02:55:10.739Z,8.50
2023-05-13T02:57:39.286Z,9.60
2023-05-13T03:00:09.564Z,8.17
2023-05-13T03:02:41.256Z,9.40
2023-05-13T03:05:11.800Z,9.20
2023-05-13T03:07:39.930Z,8.33
2023-05-13T03:10:08.906Z,10.30
2023-05-13T03:12:37.538Z,7.40
2023-05-13T03:15:06.533Z,12.27
2023-05-13T03:17:34.792Z,10.63
2023-05-13T03:20:02.903Z,9.57
2023-05-13T03:22:32.447Z,9.50
2023-05-13T03:25:00.918Z,11.37
2023-05-13T03:27:29.008Z,8.97
2023-05-13T03:29:57.073Z,10.63
2023-05-13T03:32:30.553Z,9.23
2023-05-13T03:35:00.922Z,10.53
2023-05-13T03:37:29.276Z,10.63
2023-05-13T03:39:58.983Z,9.37
2023-05-13T03:42:26.961Z,10.67
2023-05-13T03:44:57.083Z,10.90
2023-05-13T03:47:25.296Z,9.80
2023-05-13T03:49:56.276Z,10.87
2023-05-13T03:52:26.894Z,9.70
2023-05-13T03:54:55.005Z,10.70
2023-05-13T03:57:24.433Z,9.10
2023-05-13T03:59:52.498Z,9.57
2023-05-13T04:02:21.860Z,11.73
2023-05-13T04:04:50.362Z,9.87
2023-05-13T04:07:18.669Z,10.23
2023-05-13T04:09:46.827Z,9.20
2023-05-13T04:12:15.979Z,8.97
2023-05-13T04:14:45.627Z,11.63
2023-05-13T04:17:13.636Z,11.17
2023-05-13T04:19:41.652Z,13.47
2023-05-13T04:22:09.836Z,10.40
2023-05-13T04:24:37.999Z,9.53
2023-05-13T04:27:06.533Z,10.07
2023-05-13T04:29:34.755Z,11.20
2023-05-13T04:32:04.403Z,11.17
2023-05-13T04:34:32.540Z,10.07
2023-05-13T04:37:00.708Z,11.10
2023-05-13T04:39:28.785Z,9.73
2023-05-13T04:41:57.118Z,10.97
2023-05-13T04:44:25.260Z,9.13
2023-05-13T04:46:53.474Z,7.23
2023-05-13T04:49:23.197Z,10.73
2023-05-13T04:51:52.448Z,10.27
2023-05-13T04:54:21.191Z,9.07
2023-05-13T04:56:49.481Z,7.73
2023-05-13T04:59:17.561Z,10.07
2023-05-13T05:01:45.802Z,9.13
2023-05-13T05:04:14.785Z,9.40
2023-05-13T05:06:44.447Z,8.60
2023-05-13T05:09:12.851Z,9.77
2023-05-13T05:11:40.941Z,10.97
2023-05-13T05:14:09.381Z,8.83
2023-05-13T05:16:38.471Z,9.40
2023-05-13T05:19:06.620Z,9.57
2023-05-13T05:21:35.265Z,11.27
2023-05-13T05:24:06.329Z,9.80
2023-05-13T05:26:34.866Z,8.80
2023-05-13T05:29:03.168Z,10.03
2023-05-13T05:31:33.673Z,8.87
2023-05-13T05:34:02.347Z,10.33
2023-05-13T05:36:31.439Z,9.10
2023-05-13T05:38:59.740Z,9.47
2023-05-13T05:41:29.677Z,9.30
2023-05-13T05:43:58.042Z,9.63
2023-05-13T05:46:26.732Z,12.00
2023-05-13T05:48:55.389Z,8.17
2023-05-13T05:51:24.060Z,8.90
2023-05-13T05:53:52.222Z,8.23
2023-05-13T05:56:20.298Z,10.60
2023-05-13T05:58:49.815Z,9.63
2023-05-13T06:01:17.979Z,8.07
2023-05-13T06:03:47.058Z,8.70
2023-05-13T06:06:15.505Z,11.77
2023-05-13T06:08:43.735Z,10.40
2023-05-13T06:11:12.012Z,9.70
2023-05-13T06:13:40.817Z,10.37
2023-05-13T06:16:11.376Z,10.57
2023-05-13T06:18:40.757Z,11.40
2023-05-13T06:21:11.024Z,9.53
2023-05-13T06:23:39.452Z,10.97
2023-05-13T06:26:08.326Z,14.73
2023-05-13T06:28:36.596Z,9.00
2023-05-13T06:31:04.820Z,8.57
2023-05-13T06:33:35.262Z,12.37
2023-05-13T06:36:03.608Z,8.47
2023-05-13T06:38:32.115Z,9.43
2023-05-13T06:41:00.662Z,9.13
2023-05-13T06:43:29.100Z,11.87
2023-05-13T06:45:57.301Z,9.83
2023-05-13T06:48:25.532Z,11.70
2023-05-13T06:51:10.011Z,10.57
2023-05-13T06:53:38.230Z,10.00
2023-05-13T06:56:06.947Z,10.50
2023-05-13T06:58:35.336Z,12.27
2023-05-13T07:01:03.788Z,9.23
2023-05-13T07:03:32.320Z,9.03
2023-05-13T07:06:00.569Z,14.20
2023-05-13T07:08:30.201Z,9.00
2023-05-13T07:10:58.504Z,10.17
2023-05-13T07:13:27.435Z,12.17
2023-05-13T07:15:56.334Z,9.60
2023-05-13T07:18:25.103Z,10.47
2023-05-13T07:20:53.899Z,8.83
2023-05-13T07:23:21.978Z,10.80
2023-05-13T07:25:52.724Z,9.00
2023-05-13T07:28:21.409Z,14.60
2023-05-13T07:30:49.808Z,9.23
2023-05-13T07:33:17.978Z,12.67
2023-05-13T07:35:46.332Z,11.60
2023-05-13T07:38:15.192Z,11.17
2023-05-13T07:40:43.588Z,9.27
2023-05-13T07:43:13.675Z,9.23
2023-05-13T07:45:42.400Z,12.30
2023-05-13T07:48:10.968Z,11.73
2023-05-13T07:50:39.353Z,8.83
2023-05-13T07:53:07.504Z,8.40
2023-05-13T07:55:35.548Z,10.93
2023-05-13T07:58:03.735Z,9.07
2023-05-13T08:00:33.279Z,13.93
2023-05-13T08:03:01.665Z,10.67
2023-05-13T08:05:29.842Z,10.70
2023-05-13T08:07:57.948Z,10.40
2023-05-13T08:10:25.887Z,9.13
2023-05-13T08:12:57.877Z,9.47
2023-05-13T08:15:28.273Z,8.17
2023-05-13T08:21:03.539Z,6.90
2023-05-13T08:26:53.531Z,7.10
2023-05-13T08:29:27.627Z,7.97
2023-05-13T08:32:04.832Z,7.67
2023-05-13T08:34:44.540Z,6.70
2023-05-13T08:37:19.404Z,9.33
2023-05-13T08:39:51.836Z,7.23
2023-05-13T08:42:24.005Z,7.57
2023-05-13T08:44:56.955Z,8.23
2023-05-13T08:47:35.480Z,9.53
2023-05-13T08:50:06.152Z,9.03
2023-05-13T08:52:49.824Z,11.57
2023-05-13T08:55:20.169Z,7.33
2023-05-13T08:57:52.696Z,7.07
2023-05-13T09:00:21.933Z,7.17
2023-05-13T09:02:51.589Z,10.00
2023-05-13T09:05:20.914Z,11.43
2023-05-13T09:07:50.901Z,8.40
2023-05-13T09:10:20.424Z,9.17
2023-05-13T09:12:51.208Z,11.40
2023-05-13T09:15:20.674Z,9.67
2023-05-13T09:17:52.627Z,9.03
2023-05-13T09:20:22.341Z,9.43
2023-05-13T09:22:53.594Z,9.60
2023-05-13T09:25:24.836Z,9.27
2023-05-13T09:27:57.968Z,8.13
2023-05-13T09:30:27.532Z,9.00
2023-05-13T09:33:11.712Z,12.80
2023-05-13T09:35:41.777Z,12.27
2023-05-13T09:38:23.800Z,8.83
2023-05-13T09:40:56.700Z,7.70
2023-05-13T09:43:30.114Z,7.47
2023-05-13T09:45:59.768Z,8.80
2023-05-13T09:48:29.720Z,8.63
2023-05-13T09:51:01.069Z,9.97
2023-05-13T09:53:46.911Z,8.73
2023-05-13T09:56:15.432Z,8.40
2023-05-13T09:58:52.708Z,9.97
2023-05-13T10:01:22.137Z,10.43
2023-05-13T10:03:51.442Z,8.63
2023-05-13T10:06:32.983Z,10.30
2023-05-13T10:09:04.749Z,7.40
2023-05-13T10:11:37.174Z,8.60
2023-05-13T10:14:18.486Z,8.37
2023-05-13T10:16:49.650Z,8.07
2023-05-13T10:19:20.241Z,7.93
2023-05-13T10:21:51.945Z,9.77
2023-05-13T10:24:23.493Z,15.57
2023-05-13T10:26:54.711Z,12.13
2023-05-13T10:29:24.640Z,7.20
2023-05-13T10:31:54.354Z,9.20
2023-05-13T10:34:23.989Z,8.37
2023-05-13T10:37:12.931Z,8.73
2023-05-13T10:40:05.041Z,10.67
2023-05-13T10:42:44.891Z,8.23
2023-05-13T10:45:14.620Z,8.63
2023-05-13T10:48:06.426Z,6.80
2023-05-13T10:50:46.353Z,13.87
2023-05-13T10:53:24.604Z,9.47
2023-05-13T10:56:00.577Z,7.40
2023-05-13T10:58:34.028Z,12.57
2023-05-13T11:01:28.663Z,9.17
2023-05-13T11:03:58.784Z,10.70
2023-05-13T11:06:33.199Z,12.03
2023-05-13T11:09:01.523Z,8.10
2023-05-13T11:11:35.372Z,11.70
2023-05-13T11:14:16.983Z,8.50
2023-05-13T11:16:53.660Z,7.77
2023-05-13T11:19:24.883Z,8.70
2023-05-13T11:21:54.766Z,8.93
2023-05-13T11:24:24.710Z,7.50
2023-05-13T11:26:56.472Z,8.73
2023-05-13T11:29:32.736Z,9.97
2023-05-13T11:32:02.761Z,14.47
2023-05-13T11:34:32.157Z,6.80
2023-05-13T11:37:11.397Z,11.47
2023-05-13T11:39:42.153Z,8.47
2023-05-13T11:42:15.879Z,8.87
2023-05-13T11:45:01.940Z,7.33
2023-05-13T11:47:34.672Z,9.60
2023-05-13T11:50:07.891Z,8.97
2023-05-13T11:55:38.056Z,7.80
2023-05-13T11:58:08.600Z,8.60
2023-05-13T12:03:34.021Z,7.80
2023-05-13T12:12:07.624Z,8.73
2023-05-13T12:15:21.896Z,7.20
2023-05-13T12:17:51.352Z,5.17
2023-05-13T12:20:21.410Z,7.30
2023-05-13T12:22:58.829Z,9.23
2023-05-13T12:25:42.491Z,10.50
2023-05-13T12:28:17.866Z,9.00
2023-05-13T12:30:54.320Z,8.23
2023-05-13T12:33:24.001Z,6.80
2023-05-13T12:35:53.593Z,4.90
2023-05-13T12:38:24.299Z,6.83
2023-05-13T12:40:54.856Z,6.90
2023-05-13T12:43:25.007Z,7.90
2023-05-13T12:45:56.899Z,5.33
2023-05-13T12:48:26.551Z,6.23
2023-05-13T12:50:59.614Z,5.40
2023-05-13T12:53:29.756Z,6.10
2023-05-13T12:55:58.073Z,8.77
2023-05-13T12:58:27.321Z,5.53
2023-05-13T13:01:00.704Z,7.87
2023-05-13T13:03:29.980Z,6.43
2023-05-13T13:05:59.600Z,10.57
2023-05-13T13:08:30.527Z,7.93
2023-05-13T13:11:00.454Z,4.78
2023-05-13T13:13:28.756Z,5.75
2023-05-13T13:15:58.415Z,5.05
2023-05-13T13:18:26.888Z,5.75
2023-05-13T13:20:56.352Z,9.02
2023-05-13T13:23:25.355Z,5.03
2023-05-13T13:25:53.657Z,5.10
2023-05-13T13:28:21.794Z,5.20
2023-05-13T13:31:00.493Z,8.02
2023-05-13T13:33:30.246Z,4.88
2023-05-13T13:36:03.413Z,5.45
2023-05-13T13:38:31.694Z,4.85
2023-05-13T13:40:59.984Z,7.18
2023-05-13T13:43:28.390Z,5.63
2023-05-13T13:45:57.897Z,4.85
2023-05-13T13:48:25.913Z,6.13
2023-05-13T13:50:56.029Z,4.85
2023-05-13T13:53:27.677Z,5.93
2023-05-13T13:56:01.905Z,4.28
2023-05-13T13:58:30.399Z,5.30
2023-05-13T14:01:01.970Z,4.03
2023-05-13T14:03:30.603Z,4.93
2023-05-13T14:06:00.151Z,4.45
2023-05-13T14:08:28.881Z,6.78
2023-05-13T14:10:58.157Z,5.18
2023-05-13T14:13:26.422Z,3.42
2023-05-13T14:15:54.587Z,4.72
2023-05-13T14:18:24.997Z,7.68
2023-05-13T14:20:53.367Z,4.10
2023-05-13T14:23:23.075Z,8.65
2023-05-13T14:25:51.572Z,6.28
2023-05-13T14:28:22.716Z,4.25
2023-05-13T14:30:52.637Z,6.97
2023-05-13T14:33:21.929Z,5.18
2023-05-13T14:35:52.876Z,3.95
2023-05-13T14:38:25.248Z,6.03
2023-05-13T14:40:53.505Z,6.80
2023-05-13T14:43:21.634Z,5.70
2023-05-13T14:45:51.103Z,4.82
2023-05-13T14:48:21.508Z,6.15
2023-05-13T14:50:52.076Z,3.90
2023-05-13T14:53:20.209Z,3.70
2023-05-13T14:55:51.495Z,5.82
2023-05-13T14:58:22.903Z,3.92
2023-05-13T15:01:07.656Z,4.20
2023-05-13T15:03:38.074Z,7.40
2023-05-13T15:06:10.876Z,5.38
2023-05-13T15:08:39.786Z,6.90
2023-05-13T15:11:42.302Z,4.80
2023-05-13T15:29:31.664Z,5.18
2023-05-13T17:04:55.159Z,1.75
2023-05-13T18:14:32.681Z,3.63
2023-05-13T19:22:47.344Z,8.97
2023-05-13T19:28:15.402Z,9.60
2023-05-13T19:30:44.910Z,11.73
2023-05-13T19:36:23.286Z,14.53
2023-05-13T19:39:06.621Z,14.30
2023-05-13T19:44:34.216Z,12.17
2023-05-13T19:47:02.800Z,12.93
2023-05-13T19:49:31.730Z,12.90
2023-05-13T19:52:02.226Z,11.80
2023-05-13T19:54:31.000Z,15.20
2023-05-13T19:57:01.872Z,13.47
2023-05-13T19:59:31.344Z,14.63
2023-05-13T23:47:14.590Z,37.53
